Time;durP1;ratioP1;P1;durP2;ratioP2;P2;SDS_P1;SDS_P2;PMS_P1;PMS_P2;Temp;Humidity;BMP_temperature;BMP_pressure;BME280_temperature;BME280_humidity;BME280_pressure;Samples;Min_cycle;Max_cycle;Signal;HPM_P1;HPM_P2
2023/08/02 00:00:22;;;;;;;0.10;0.10;;;;;;;18.58;70.04;100120.75;4970981;28;20050;-82
2023/08/02 00:02:49;;;;;;;0.10;0.10;;;;;;;18.62;69.50;100116.03;4966177;28;20098;-82
2023/08/02 00:05:15;;;;;;;0.10;0.10;;;;;;;18.64;69.34;100119.50;4974997;28;20046;-82
2023/08/02 00:07:41;;;;;;;0.10;0.10;;;;;;;18.66;69.35;100116.72;4964948;28;20039;-84
2023/08/02 00:10:07;;;;;;;0.10;0.10;;;;;;;18.65;69.24;100107.78;4956088;28;20043;-83
2023/08/02 00:12:34;;;;;;;0.10;0.10;;;;;;;18.63;69.41;100100.78;4983565;28;20041;-82
2023/08/02 00:15:00;;;;;;;0.10;0.10;;;;;;;18.60;69.28;100091.13;4990780;28;20054;-80
2023/08/02 00:17:26;;;;;;;0.10;0.10;;;;;;;18.58;69.30;100103.81;4978093;28;20488;-83
2023/08/02 00:19:52;;;;;;;0.10;0.10;;;;;;;18.55;69.29;100106.69;4974888;28;20027;-83
2023/08/02 00:22:18;;;;;;;0.10;0.10;;;;;;;18.52;69.24;100090.78;5010124;28;20043;-83
2023/08/02 00:24:44;;;;;;;0.20;0.20;;;;;;;18.52;69.14;100094.31;5037017;28;20091;-83
2023/08/02 00:27:10;;;;;;;0.00;0.00;;;;;;;18.51;69.07;100102.47;5039049;28;20030;-83
2023/08/02 00:29:36;;;;;;;0.10;0.10;;;;;;;18.53;69.21;100095.16;5036438;28;20025;-82
2023/08/02 00:32:02;;;;;;;0.10;0.10;;;;;;;18.56;69.30;100089.63;5035979;28;20069;-82
2023/08/02 00:34:28;;;;;;;0.20;0.20;;;;;;;18.59;69.68;100097.44;5036263;28;20116;-82
2023/08/02 00:36:54;;;;;;;0.10;0.10;;;;;;;18.61;69.49;100095.53;5034927;28;20037;-82
2023/08/02 00:39:21;;;;;;;0.10;0.10;;;;;;;18.65;69.39;100088.16;5032024;28;20029;-81
2023/08/02 00:41:47;;;;;;;0.10;0.10;;;;;;;18.65;69.58;100083.63;5031671;28;20040;-80
2023/08/02 00:44:14;;;;;;;0.20;0.20;;;;;;;18.69;69.20;100079.81;5030700;28;20025;-83
2023/08/02 00:46:40;;;;;;;0.28;0.28;;;;;;;18.71;69.23;100075.19;5028056;28;20064;-83
2023/08/02 00:49:09;;;;;;;0.10;0.10;;;;;;;18.75;69.21;100076.72;5034061;28;20065;-83
2023/08/02 00:51:35;;;;;;;0.10;0.10;;;;;;;18.78;69.27;100072.09;5034707;28;20396;-82
2023/08/02 00:54:02;;;;;;;0.65;0.65;;;;;;;18.80;69.17;100072.84;5033462;28;20036;-84
2023/08/02 00:56:30;;;;;;;0.10;0.10;;;;;;;18.79;69.09;100084.56;5031799;28;20029;-82
2023/08/02 00:58:56;;;;;;;0.10;0.10;;;;;;;18.79;69.16;100080.06;5033445;28;20670;-82
2023/08/02 01:01:22;;;;;;;0.10;0.10;;;;;;;18.75;69.06;100074.03;5031557;28;20030;-80
2023/08/02 01:03:50;;;;;;;0.10;0.10;;;;;;;18.70;69.14;100073.44;5035976;28;20055;-81
2023/08/02 01:06:41;;;;;;;0.10;0.10;;;;;;;18.75;68.98;100074.03;5039901;28;20112;-80
2023/08/02 01:11:56;;;;;;;0.10;0.10;;;;;;;18.68;68.80;100061.97;5094914;27;20394;-83
2023/08/02 01:14:25;;;;;;;0.00;0.00;;;;;;;18.56;69.13;100058.28;5070917;28;20048;-82
2023/08/02 01:16:53;;;;;;;0.10;0.10;;;;;;;18.52;69.00;100066.66;5069648;28;20039;-82
2023/08/02 01:19:21;;;;;;;0.30;0.30;;;;;;;18.49;69.13;100056.09;5073912;28;20440;-82
2023/08/02 01:21:48;;;;;;;0.03;0.03;;;;;;;18.45;69.12;100055.44;5074252;28;20104;-81
2023/08/02 01:24:15;;;;;;;0.38;0.38;;;;;;;18.40;69.17;100050.38;5073876;28;20463;-80
2023/08/02 01:26:46;;;;;;;0.30;0.30;;;;;;;18.38;69.23;100049.63;5073140;28;20029;-81
2023/08/02 01:29:19;;;;;;;0.10;0.10;;;;;;;18.32;69.42;100050.03;5073019;28;20029;-81
2023/08/02 01:31:47;;;;;;;;;;;;;;;18.40;69.04;100052.22;5068100;28;20032;-84
2023/08/02 01:34:13;;;;;;;0.10;0.10;;;;;;;18.25;69.84;100043.34;5068044;28;20262;-84
2023/08/02 01:36:39;;;;;;;0.10;0.10;;;;;;;18.26;70.04;100045.06;5074564;28;20032;-84
2023/08/02 01:39:07;;;;;;;0.10;0.10;;;;;;;18.30;69.50;100041.22;5068572;28;20028;-81
2023/08/02 01:41:33;;;;;;;0.20;0.20;;;;;;;18.32;69.92;100028.59;5067561;28;20025;-83
2023/08/02 01:43:59;;;;;;;1.08;0.88;;;;;;;18.36;69.89;100027.41;5067685;28;20060;-82
2023/08/02 01:46:25;;;;;;;0.95;0.90;;;;;;;18.40;70.05;100023.56;5075578;28;20036;-81
2023/08/02 01:48:51;;;;;;;0.10;0.10;;;;;;;18.43;70.03;100020.69;5075060;28;20111;-81
2023/08/02 01:51:18;;;;;;;0.10;0.10;;;;;;;18.46;70.02;100014.25;5080141;28;20038;-81
2023/08/02 01:53:44;;;;;;;0.10;0.10;;;;;;;18.44;69.82;100005.44;5065543;28;20489;-83
2023/08/02 01:56:10;;;;;;;0.20;0.20;;;;;;;18.48;69.99;99996.25;5067742;28;20078;-82
2023/08/02 01:58:36;;;;;;;0.10;0.10;;;;;;;18.49;69.80;99991.72;5075702;28;20635;-83
2023/08/02 02:01:02;;;;;;;0.47;0.47;;;;;;;18.48;69.84;99987.31;5066543;28;20043;-83
2023/08/02 02:03:28;;;;;;;0.20;0.20;;;;;;;18.49;69.59;99987.25;5062012;28;20536;-82
2023/08/02 02:05:55;;;;;;;0.10;0.10;;;;;;;18.52;69.69;99970.09;5077945;28;20064;-83
2023/08/02 02:08:22;;;;;;;0.10;0.10;;;;;;;18.52;69.72;99959.34;5069923;28;20039;-82
2023/08/02 02:10:52;;;;;;;0.10;0.10;;;;;;;18.53;69.58;99948.50;5067412;28;20029;-82
2023/08/02 02:13:20;;;;;;;0.95;0.95;;;;;;;18.53;69.40;99937.78;5068452;28;20033;-82
2023/08/02 02:15:46;;;;;;;0.10;0.10;;;;;;;18.53;69.51;99939.59;5069221;28;20061;-82
2023/08/02 02:18:12;;;;;;;0.70;0.70;;;;;;;18.53;69.53;99944.94;5070635;28;20032;-84
2023/08/02 02:20:38;;;;;;;1.85;1.35;;;;;;;18.50;69.34;99939.81;5083329;22;20049;-82
2023/08/02 02:23:04;;;;;;;0.10;0.10;;;;;;;18.43;69.39;99926.81;5067098;28;20035;-83
2023/08/02 02:25:31;;;;;;;0.10;0.10;;;;;;;18.41;69.58;99926.03;5074629;28;20028;-83
2023/08/02 02:27:57;;;;;;;0.20;0.20;;;;;;;18.34;69.68;99905.97;5071285;28;20039;-83
2023/08/02 02:30:23;;;;;;;0.30;0.30;;;;;;;18.31;69.63;99908.03;5079044;28;20048;-84
2023/08/02 02:32:49;;;;;;;0.10;0.10;;;;;;;18.28;69.67;99906.41;5077409;28;20092;-84
2023/08/02 02:35:15;;;;;;;0.90;0.90;;;;;;;18.22;70.03;99904.13;5085368;28;20044;-84
2023/08/02 02:37:42;;;;;;;0.10;0.10;;;;;;;18.20;69.83;99898.00;5088182;28;20028;-83
2023/08/02 02:40:10;;;;;;;0.10;0.10;;;;;;;18.17;70.16;99896.41;5092794;28;20048;-82
2023/08/02 02:42:40;;;;;;;0.40;0.40;;;;;;;18.15;70.19;99897.47;5088477;28;20028;-82
2023/08/02 02:45:08;;;;;;;0.10;0.10;;;;;;;18.13;70.27;99894.00;5079878;28;20055;-82
2023/08/02 02:47:35;;;;;;;0.32;0.32;;;;;;;18.10;70.16;99900.44;5082747;28;20033;-82
2023/08/02 02:50:02;;;;;;;0.10;0.10;;;;;;;18.05;70.38;99900.75;5088445;28;20317;-83
2023/08/02 02:52:28;;;;;;;0.10;0.10;;;;;;;18.01;70.80;99907.28;5075767;28;20107;-81
2023/08/02 02:54:54;;;;;;;0.82;0.82;;;;;;;17.97;70.94;99903.09;5080533;28;20032;-80
2023/08/02 02:57:21;;;;;;;0.10;0.10;;;;;;;17.96;70.95;99901.38;5078105;28;20029;-81
2023/08/02 02:59:47;;;;;;;0.10;0.10;;;;;;;17.94;71.37;99882.72;5077848;28;20048;-83
2023/08/02 03:02:13;;;;;;;0.20;0.20;;;;;;;17.92;71.27;99859.63;5074566;28;20150;-82
2023/08/02 03:04:39;;;;;;;0.20;0.20;;;;;;;17.94;71.28;99855.03;5083126;28;20129;-84
2023/08/02 03:07:08;;;;;;;0.10;0.10;;;;;;;17.95;71.58;99849.56;5085453;28;20107;-82
2023/08/02 03:09:34;;;;;;;1.40;1.38;;;;;;;17.96;71.28;99839.72;5075255;28;20044;-82
2023/08/02 03:12:00;;;;;;;0.10;0.10;;;;;;;17.97;71.68;99833.41;5074950;28;20029;-80
2023/08/02 03:14:27;;;;;;;0.20;0.20;;;;;;;18.01;71.55;99821.50;5093755;28;20032;-80
2023/08/02 03:16:53;;;;;;;0.10;0.10;;;;;;;18.05;71.64;99823.00;5091546;28;20039;-83
2023/08/02 03:19:19;;;;;;;0.40;0.40;;;;;;;18.07;71.62;99821.09;5080200;28;20037;-83
2023/08/02 03:21:45;;;;;;;0.10;0.10;;;;;;;18.08;71.56;99814.78;5079204;28;20048;-84
2023/08/02 03:24:12;;;;;;;0.10;0.10;;;;;;;18.13;71.44;99802.88;5079557;28;20028;-84
2023/08/02 03:26:38;;;;;;;0.10;0.10;;;;;;;18.15;71.47;99799.13;5080024;28;20063;-84
2023/08/02 03:29:07;;;;;;;0.15;0.15;;;;;;;18.19;71.47;99792.56;5078690;28;20043;-84
2023/08/02 03:31:33;;;;;;;0.73;0.73;;;;;;;18.20;71.35;99793.44;5077450;28;20039;-84
2023/08/02 03:33:59;;;;;;;0.10;0.10;;;;;;;18.21;71.36;99787.13;5081844;28;20045;-84
2023/08/02 03:36:25;;;;;;;0.10;0.10;;;;;;;18.21;71.61;99787.13;5087660;28;20028;-83
2023/08/02 03:38:51;;;;;;;0.10;0.10;;;;;;;18.23;71.88;99790.53;5078994;28;20036;-83
2023/08/02 03:41:17;;;;;;;0.10;0.10;;;;;;;18.24;71.65;99776.19;5078935;28;20025;-84
2023/08/02 03:43:43;;;;;;;0.10;0.10;;;;;;;18.24;72.01;99776.19;5077142;28;20025;-83
2023/08/02 03:46:09;;;;;;;0.10;0.10;;;;;;;18.21;72.60;99773.72;5077740;28;20028;-82
2023/08/02 03:48:36;;;;;;;0.40;0.40;;;;;;;18.22;72.56;99759.38;5091425;28;20028;-83
2023/08/02 03:51:02;;;;;;;0.65;0.65;;;;;;;18.24;71.76;99754.72;5083269;28;20021;-83
2023/08/02 03:53:30;;;;;;;0.10;0.10;;;;;;;18.24;72.15;99746.69;5077643;28;20526;-83
2023/08/02 03:55:56;;;;;;;0.10;0.10;;;;;;;18.23;72.47;99755.69;5084807;28;20028;-84
2023/08/02 03:58:22;;;;;;;0.10;0.10;;;;;;;18.21;72.58;99746.91;5078688;28;20032;-82
2023/08/02 04:00:48;;;;;;;0.10;0.10;;;;;;;18.25;72.29;99743.03;5082675;28;20051;-83
2023/08/02 04:03:15;;;;;;;0.70;0.63;;;;;;;18.24;72.73;99738.66;5083047;28;20073;-83
2023/08/02 04:05:41;;;;;;;0.10;0.10;;;;;;;18.24;72.36;99730.59;5086907;28;20028;-83
2023/08/02 04:08:07;;;;;;;0.10;0.10;;;;;;;18.20;72.90;99723.75;5085391;28;20070;-82
2023/08/02 04:10:37;;;;;;;0.35;0.35;;;;;;;18.22;72.75;99724.50;5077856;28;20031;-83
2023/08/02 04:13:03;;;;;;;0.10;0.10;;;;;;;18.17;72.97;99707.84;5084770;28;20082;-83
2023/08/02 04:15:32;;;;;;;0.10;0.10;;;;;;;18.19;72.60;99705.94;5087512;28;20047;-82
2023/08/02 04:17:58;;;;;;;1.55;0.38;;;;;;;18.17;72.70;99697.13;5085713;28;20092;-82
2023/08/02 04:20:24;;;;;;;0.30;0.30;;;;;;;18.16;73.04;99696.28;5078840;28;20055;-83
2023/08/02 04:22:50;;;;;;;0.10;0.10;;;;;;;18.15;72.90;99683.00;5082082;28;20032;-84
2023/08/02 04:25:17;;;;;;;0.10;0.10;;;;;;;18.10;73.40;99676.13;5095176;28;20024;-82
2023/08/02 04:27:43;;;;;;;0.10;0.10;;;;;;;18.09;73.43;99674.44;5076298;28;20107;-82
2023/08/02 04:30:09;;;;;;;0.10;0.10;;;;;;;18.08;73.43;99670.03;5088446;28;20111;-82
2023/08/02 04:32:36;;;;;;;0.17;0.17;;;;;;;18.07;73.37;99665.63;5086990;28;20024;-81
2023/08/02 04:35:02;;;;;;;0.08;0.08;;;;;;;18.03;73.48;99664.13;5077837;28;20217;-81
2023/08/02 04:37:28;;;;;;;0.10;0.10;;;;;;;18.01;74.00;99649.97;5078905;28;20042;-83
2023/08/02 04:39:54;;;;;;;0.10;0.10;;;;;;;18.05;73.66;99642.59;5082225;28;20060;-81
2023/08/02 04:42:20;;;;;;;0.10;0.10;;;;;;;18.08;73.54;99626.28;5075128;28;20055;-81
2023/08/02 04:44:46;;;;;;;0.10;0.10;;;;;;;18.09;73.72;99615.47;5073446;28;20115;-79
2023/08/02 04:47:12;;;;;;;0.10;0.10;;;;;;;18.10;73.61;99610.94;5083289;28;20032;-82
2023/08/02 04:49:38;;;;;;;0.10;0.10;;;;;;;18.10;73.84;99606.44;5082970;28;20029;-83
2023/08/02 04:52:05;;;;;;;0.10;0.10;;;;;;;18.13;74.11;99600.03;5078174;28;20047;-81
2023/08/02 04:54:31;;;;;;;0.08;0.08;;;;;;;18.14;73.83;99592.81;5067378;28;20552;-83
2023/08/02 04:56:57;;;;;;;0.10;0.10;;;;;;;18.13;74.37;99585.75;5078645;28;20029;-83
2023/08/02 04:59:23;;;;;;;0.20;0.20;;;;;;;18.13;74.28;99586.63;5073621;28;20132;-83
2023/08/02 05:01:49;;;;;;;0.25;0.25;;;;;;;18.16;74.18;99588.22;5072302;28;20079;-83
2023/08/02 05:04:15;;;;;;;0.20;0.20;;;;;;;18.17;74.41;99587.22;5073758;28;20040;-83
2023/08/02 05:06:42;;;;;;;0.10;0.10;;;;;;;18.18;74.66;99573.75;5076555;28;20570;-83
2023/08/02 05:09:09;;;;;;;1.08;1.08;;;;;;;18.19;74.57;99570.06;5074652;28;20021;-80
2023/08/02 05:11:40;;;;;;;0.10;0.10;;;;;;;18.18;74.96;99554.09;5065950;28;20024;-83
2023/08/02 05:14:06;;;;;;;2.17;1.97;;;;;;;18.18;74.96;99549.63;5073134;28;20100;-81
2023/08/02 05:16:32;;;;;;;0.10;0.10;;;;;;;18.20;74.74;99536.94;5072884;28;20436;-81
2023/08/02 05:18:58;;;;;;;0.10;0.10;;;;;;;18.20;74.81;99525.38;5072684;28;20404;-82
2023/08/02 05:21:24;;;;;;;0.10;0.10;;;;;;;18.20;74.91;99522.69;5073868;28;20499;-82
2023/08/02 05:23:50;;;;;;;0.10;0.10;;;;;;;18.23;74.70;99515.28;5073769;28;20020;-81
2023/08/02 05:26:16;;;;;;;0.10;0.10;;;;;;;18.21;75.16;99516.38;5074559;28;20036;-82
2023/08/02 05:28:42;;;;;;;0.10;0.10;;;;;;;18.23;74.85;99509.91;5073400;28;20024;-82
2023/08/02 05:31:11;;;;;;;0.17;0.17;;;;;;;18.27;75.13;99494.47;5074650;28;20024;-82
2023/08/02 05:33:37;;;;;;;0.10;0.10;;;;;;;18.26;74.92;99492.75;5073568;28;20036;-83
2023/08/02 05:36:04;;;;;;;0.10;0.10;;;;;;;18.24;74.96;99483.94;5079533;28;20040;-82
2023/08/02 05:38:30;;;;;;;0.10;0.10;;;;;;;18.21;75.51;99468.09;5087910;28;20031;-83
2023/08/02 05:41:01;;;;;;;0.75;0.75;;;;;;;18.23;75.14;99471.50;5095403;28;20097;-82
2023/08/02 05:43:27;;;;;;;0.47;0.47;;;;;;;18.19;75.54;99473.56;5085270;28;20028;-82
2023/08/02 05:45:53;;;;;;;0.10;0.10;;;;;;;18.16;75.65;99463.09;5086399;28;20037;-82
2023/08/02 05:48:19;;;;;;;0.20;0.20;;;;;;;18.17;75.57;99455.88;5086264;28;20495;-82
2023/08/02 05:50:46;;;;;;;0.10;0.10;;;;;;;18.17;75.49;99458.56;5087274;28;20028;-82
2023/08/02 05:53:13;;;;;;;0.20;0.20;;;;;;;18.16;75.09;99448.84;5087662;28;20042;-82
2023/08/02 05:55:39;;;;;;;0.10;0.10;;;;;;;18.15;75.47;99449.78;5083290;28;20461;-82
2023/08/02 05:58:05;;;;;;;0.10;0.10;;;;;;;18.15;75.92;99447.13;5087762;28;20473;-84
2023/08/02 06:00:31;;;;;;;0.10;0.10;;;;;;;18.11;76.33;99436.59;5093849;28;20029;-81
2023/08/02 06:02:57;;;;;;;0.10;0.10;;;;;;;18.10;76.29;99429.53;5085679;28;20070;-82
2023/08/02 06:05:23;;;;;;;0.10;0.10;;;;;;;18.09;76.46;99424.28;5085278;28;20047;-81
2023/08/02 06:07:50;;;;;;;0.10;0.10;;;;;;;18.10;76.39;99410.75;5083379;28;20032;-81
2023/08/02 06:10:16;;;;;;;0.93;0.82;;;;;;;18.12;75.80;99416.03;5081694;28;20441;-80
2023/08/02 06:12:43;;;;;;;0.00;0.00;;;;;;;18.12;76.05;99413.34;5095888;28;20043;-82
2023/08/02 06:15:10;;;;;;;0.10;0.10;;;;;;;18.11;76.46;99411.63;5091482;28;20119;-83
2023/08/02 06:17:36;;;;;;;0.17;0.17;;;;;;;18.09;76.24;99401.03;5088057;28;20717;-82
2023/08/02 06:20:02;;;;;;;0.10;0.10;;;;;;;18.07;76.92;99397.63;5084078;28;20116;-80
2023/08/02 06:22:29;;;;;;;0.10;0.10;;;;;;;18.05;77.24;99387.97;5087566;28;20607;-81
2023/08/02 06:24:55;;;;;;;0.10;0.10;;;;;;;18.04;77.11;99384.41;5089812;28;20074;-81
2023/08/02 06:27:21;;;;;;;0.17;0.17;;;;;;;17.98;77.75;99376.00;5089736;28;20647;-82
2023/08/02 06:29:47;;;;;;;0.10;0.10;;;;;;;18.08;77.13;99356.44;5089498;28;20025;-80
2023/08/02 06:32:13;;;;;;;0.65;0.40;;;;;;;18.13;76.88;99352.56;5087443;28;20033;-81
2023/08/02 06:34:39;;;;;;;0.10;0.10;;;;;;;18.13;77.27;99337.34;5087357;28;20058;-79
2023/08/02 06:37:05;;;;;;;0.00;0.00;;;;;;;18.17;77.50;99332.56;5091090;28;20089;-80
2023/08/02 06:39:32;;;;;;;0.95;0.95;;;;;;;18.20;77.87;99327.00;5083418;28;20039;-80
2023/08/02 06:41:59;;;;;;;0.40;0.40;;;;;;;18.24;77.81;99317.75;5083249;28;20096;-81
2023/08/02 06:44:25;;;;;;;0.30;0.30;;;;;;;18.30;77.93;99311.91;5086755;28;20096;-81
2023/08/02 06:46:51;;;;;;;0.10;0.10;;;;;;;18.26;78.54;99313.13;5086525;28;20507;-81
2023/08/02 06:49:17;;;;;;;0.10;0.10;;;;;;;18.28;78.21;99305.84;5087313;28;20036;-81
2023/08/02 06:51:43;;;;;;;0.10;0.10;;;;;;;18.30;78.50;99309.22;5092991;28;20074;-80
2023/08/02 06:54:09;;;;;;;0.10;0.10;;;;;;;18.36;78.41;99305.22;5088572;28;20032;-79
2023/08/02 06:56:35;;;;;;;0.20;0.20;;;;;;;18.40;78.08;99291.44;5084529;28;20033;-81
2023/08/02 06:59:01;;;;;;;0.10;0.10;;;;;;;18.44;78.05;99289.38;5088424;28;20100;-81
2023/08/02 07:01:27;;;;;;;0.10;0.10;;;;;;;18.42;78.16;99286.00;5086702;28;20028;-82
2023/08/02 07:04:08;;;;;;;0.10;0.10;;;;;;;18.40;78.02;99267.31;5085805;28;20055;-80
2023/08/02 07:06:34;;;;;;;0.20;0.20;;;;;;;18.46;77.64;99259.78;5080857;28;20025;-79
2023/08/02 07:09:00;;;;;;;4.03;1.50;;;;;;;18.50;77.62;99253.19;5080916;28;20028;-79
2023/08/02 07:11:26;;;;;;;0.10;0.10;;;;;;;18.49;77.60;99241.63;5082094;28;20086;-80
2023/08/02 07:13:52;;;;;;;0.10;0.10;;;;;;;18.51;77.60;99238.81;5081462;28;20037;-79
2023/08/02 07:16:18;;;;;;;0.10;0.10;;;;;;;18.51;77.63;99228.94;5089198;28;20112;-79
2023/08/02 07:18:44;;;;;;;0.10;0.10;;;;;;;18.48;77.62;99226.50;5088545;28;20036;-79
2023/08/02 07:21:13;;;;;;;0.10;0.10;;;;;;;18.46;77.71;99230.28;5082694;28;20036;-80
2023/08/02 07:23:39;;;;;;;0.10;0.10;;;;;;;18.40;78.28;99215.53;5113253;22;20119;-81
2023/08/02 07:26:06;;;;;;;0.10;0.10;;;;;;;18.38;78.57;99218.34;5092384;28;20033;-80
2023/08/02 07:28:33;;;;;;;0.10;0.10;;;;;;;18.45;78.22;99204.44;5092088;28;20055;-79
2023/08/02 07:31:14;;;;;;;0.10;0.10;;;;;;;18.53;78.52;99191.25;5097411;28;20544;-79
2023/08/02 07:33:41;;;;;;;0.00;0.00;;;;;;;18.49;78.69;99198.72;5107018;28;20042;-81
2023/08/02 07:36:14;;;;;;;0.10;0.10;;;;;;;18.53;78.84;99188.56;5095425;28;20024;-77
2023/08/02 07:38:41;;;;;;;0.10;0.10;;;;;;;18.57;78.84;99179.34;5101513;28;20028;-81
2023/08/02 07:41:07;;;;;;;0.10;0.10;;;;;;;18.65;78.25;99176.88;5101637;28;20405;-78
2023/08/02 07:43:33;;;;;;;0.10;0.10;;;;;;;18.65;78.51;99171.50;5103135;28;20416;-80
2023/08/02 07:45:59;;;;;;;0.47;0.47;;;;;;;18.65;78.66;99162.63;5096669;28;20103;-79
2023/08/02 07:48:26;;;;;;;0.10;0.10;;;;;;;18.65;78.63;99166.13;5094134;28;20036;-80
2023/08/02 07:50:52;;;;;;;0.10;0.10;;;;;;;18.64;78.77;99159.09;5103550;28;20028;-81
2023/08/02 07:53:18;;;;;;;0.10;0.10;;;;;;;18.71;78.51;99157.59;5100673;28;20024;-79
2023/08/02 07:55:44;;;;;;;0.10;0.10;;;;;;;18.73;78.59;99158.34;5098054;28;20039;-80
2023/08/02 07:58:10;;;;;;;2.08;0.47;;;;;;;18.79;78.23;99156.13;5090451;28;20032;-78
2023/08/02 08:00:36;;;;;;;0.15;0.15;;;;;;;18.80;78.21;99158.69;5093200;28;20099;-80
2023/08/02 08:03:03;;;;;;;0.20;0.20;;;;;;;18.81;78.49;99154.19;5093144;28;20088;-78
2023/08/02 08:05:30;;;;;;;0.10;0.10;;;;;;;18.82;78.61;99145.16;5092291;28;20131;-78
2023/08/02 08:07:56;;;;;;;0.10;0.10;;;;;;;18.81;78.97;99143.44;5090605;28;20020;-82
2023/08/02 08:10:22;;;;;;;0.03;0.03;;;;;;;18.86;78.90;99146.59;5102462;28;20520;-82
2023/08/02 08:12:48;;;;;;;0.15;0.15;;;;;;;18.86;78.90;99147.44;5106536;28;20043;-83
2023/08/02 08:15:14;;;;;;;0.10;0.10;;;;;;;18.93;78.93;99134.44;5100057;28;20040;-81
2023/08/02 08:17:40;;;;;;;0.10;0.10;;;;;;;18.92;79.08;99135.41;5089362;28;20039;-82
2023/08/02 08:20:07;;;;;;;0.10;0.10;;;;;;;18.96;79.13;99123.44;5091772;28;20050;-81
2023/08/02 08:22:33;;;;;;;0.10;0.10;;;;;;;19.05;79.21;99124.50;5084281;28;20059;-81
2023/08/02 08:24:59;;;;;;;0.10;0.10;;;;;;;19.12;79.12;99123.00;5096176;28;20035;-82
2023/08/02 08:27:25;;;;;;;0.10;0.10;;;;;;;19.21;79.04;99102.59;5101200;28;20028;-80
2023/08/02 08:29:51;;;;;;;0.13;0.13;;;;;;;19.31;79.50;99103.50;5087442;28;20028;-80
2023/08/02 08:32:18;;;;;;;0.10;0.10;;;;;;;19.43;79.82;99119.56;5084079;28;20040;-79
2023/08/02 08:34:44;;;;;;;0.10;0.10;;;;;;;19.60;79.72;99102.03;5082909;28;20055;-78
2023/08/02 08:37:10;;;;;;;0.10;0.10;;;;;;;19.70;79.96;99106.50;5079376;28;20051;-81
2023/08/02 08:39:37;;;;;;;0.03;0.03;;;;;;;19.80;79.16;99086.88;5080763;28;20016;-82
2023/08/02 08:42:07;;;;;;;0.08;0.08;;;;;;;19.85;79.19;99090.03;5095402;28;20401;-83
2023/08/02 08:44:38;;;;;;;0.10;0.10;;;;;;;19.91;79.10;99084.13;5097663;28;20549;-79
2023/08/02 08:47:06;;;;;;;0.00;0.00;;;;;;;20.00;79.35;99083.34;5085291;28;20077;-81
2023/08/02 08:49:33;;;;;;;0.10;0.10;;;;;;;20.09;79.40;99072.75;5090909;28;20031;-81
2023/08/02 08:52:07;;;;;;;0.30;0.30;;;;;;;20.29;79.49;99054.88;5088559;28;20032;-80
2023/08/02 08:54:37;;;;;;;0.00;0.00;;;;;;;20.42;79.84;99043.84;5105746;28;20088;-78
2023/08/02 08:57:05;;;;;;;0.10;0.10;;;;;;;20.59;79.56;99056.63;5099900;28;20051;-83
2023/08/02 08:59:31;;;;;;;0.03;0.03;;;;;;;20.71;78.87;99059.19;5095344;28;20024;-82
2023/08/02 09:01:58;;;;;;;0.00;0.00;;;;;;;20.85;78.69;99066.91;5096542;28;20036;-84
2023/08/02 09:04:25;;;;;;;0.32;0.32;;;;;;;20.88;77.84;99060.38;5088495;28;20436;-82
2023/08/02 09:06:52;;;;;;;0.10;0.10;;;;;;;20.87;77.51;99059.50;5103068;28;20032;-82
2023/08/02 09:09:18;;;;;;;0.10;0.10;;;;;;;20.85;77.08;99056.97;5104414;28;20038;-82
2023/08/02 09:11:44;;;;;;;0.10;0.10;;;;;;;20.88;77.03;99060.38;5099516;28;20432;-81
2023/08/02 09:14:15;;;;;;;0.10;0.10;;;;;;;20.90;76.96;99053.88;5099761;28;20508;-80
2023/08/02 09:19:36;;;;;;;0.20;0.20;;;;;;;20.86;76.78;99044.38;5091744;27;1234576;-81
2023/08/02 09:24:44;;;;;;;0.10;0.10;;;;;;;21.11;77.42;99034.00;5062726;28;20388;-83
2023/08/02 09:27:20;;;;;;;0.10;0.10;;;;;;;21.24;77.23;99029.19;5056052;28;20056;-82
2023/08/02 09:29:54;;;;;;;0.15;0.15;;;;;;;21.43;77.05;99028.31;5046837;28;20024;-82
2023/08/02 09:32:22;;;;;;;0.25;0.25;;;;;;;21.54;76.91;99027.28;5055680;28;20032;-82
2023/08/02 09:34:50;;;;;;;0.00;0.00;;;;;;;21.60;75.99;99029.41;5052119;28;20026;-82
2023/08/02 09:37:28;;;;;;;0.10;0.10;;;;;;;21.73;75.48;99036.31;5050524;28;20021;-81
2023/08/02 09:39:54;;;;;;;0.10;0.10;;;;;;;21.86;75.24;99027.91;5052087;28;20202;-82
2023/08/02 09:42:25;;;;;;;0.00;0.00;;;;;;;21.98;74.78;99022.19;5053095;28;20029;-83
2023/08/02 09:44:57;;;;;;;0.08;0.08;;;;;;;22.18;74.59;99021.25;5054854;28;20396;-81
2023/08/02 09:47:25;;;;;;;0.10;0.10;;;;;;;22.26;74.69;99022.19;5052610;28;20021;-83
2023/08/02 09:50:11;;;;;;;0.10;0.10;;;;;;;22.47;73.90;99021.09;5052295;28;20021;-81
2023/08/02 09:52:39;;;;;;;0.00;0.00;;;;;;;22.40;72.84;99020.00;5051568;28;20056;-82
2023/08/02 09:55:07;;;;;;;0.00;0.00;;;;;;;22.52;71.62;99016.09;5053209;28;20112;-82
2023/08/02 09:57:36;;;;;;;0.00;0.00;;;;;;;22.70;72.94;99009.88;5052744;28;20025;-83
2023/08/02 10:00:07;;;;;;;0.00;0.00;;;;;;;22.82;72.05;99011.31;5053055;28;20037;-81
2023/08/02 10:02:36;;;;;;;1.20;1.10;;;;;;;22.86;70.84;99003.78;5051860;28;20025;-83
2023/08/02 10:05:03;;;;;;;0.10;0.10;;;;;;;23.00;69.66;98999.66;5053109;28;20021;-83
2023/08/02 10:07:49;;;;;;;0.10;0.10;;;;;;;23.17;69.44;99001.53;5052000;28;20057;-83
2023/08/02 10:10:22;;;;;;;0.00;0.00;;;;;;;23.11;68.66;99007.53;5052500;28;20362;-82
2023/08/02 10:12:52;;;;;;;0.00;0.00;;;;;;;23.14;65.63;99001.81;5051924;28;20017;-84
2023/08/02 10:15:19;;;;;;;0.63;0.63;;;;;;;23.20;65.38;99012.03;5046624;28;20017;-84
2023/08/02 10:17:47;;;;;;;0.55;0.50;;;;;;;23.24;65.12;98991.78;5054253;28;20029;-84
2023/08/02 10:20:15;;;;;;;1.60;0.82;;;;;;;23.30;63.89;99000.25;5055336;28;20029;-83
2023/08/02 10:22:41;;;;;;;0.10;0.10;;;;;;;23.06;62.22;99005.28;5054013;28;20060;-85
2023/08/02 10:25:08;;;;;;;0.03;0.03;;;;;;;23.12;63.17;99002.97;5052653;28;20029;-84
2023/08/02 10:27:36;;;;;;;0.10;0.10;;;;;;;22.93;61.79;99005.69;5052246;28;20539;-84
2023/08/02 10:30:04;;;;;;;0.10;0.10;;;;;;;22.80;62.03;99002.53;5053991;28;20033;-83
2023/08/02 10:32:30;;;;;;;0.20;0.20;;;;;;;22.54;60.19;99016.81;5061148;28;20025;-82
2023/08/02 10:34:59;;;;;;;0.10;0.10;;;;;;;22.60;59.32;98989.19;5051984;28;20057;-81
2023/08/02 10:37:54;;;;;;;0.05;0.05;;;;;;;22.69;59.13;98979.34;5050590;28;20535;-83
2023/08/02 10:40:22;;;;;;;0.20;0.20;;;;;;;22.78;59.61;98985.66;5052388;28;20063;-81
2023/08/02 10:43:06;;;;;;;0.00;0.00;;;;;;;22.75;58.65;98980.53;5049491;28;20030;-84
2023/08/02 10:45:33;;;;;;;0.20;0.20;;;;;;;22.91;59.00;98969.88;5035460;28;20037;-82
2023/08/02 10:48:25;;;;;;;0.20;0.20;;;;;;;22.96;58.05;98971.28;5032278;28;20037;-83
2023/08/02 10:50:51;;;;;;;0.17;0.17;;;;;;;22.93;57.36;98973.28;5036426;28;20034;-84
2023/08/02 10:53:18;;;;;;;0.10;0.10;;;;;;;22.94;57.49;98969.59;5035527;28;20496;-82
2023/08/02 10:56:05;;;;;;;0.30;0.30;;;;;;;23.31;57.29;98980.34;5036511;28;20048;-82
2023/08/02 10:58:51;;;;;;;0.10;0.10;;;;;;;23.18;56.65;98960.00;5035293;28;20055;-84
2023/08/02 11:01:20;;;;;;;0.00;0.00;;;;;;;23.36;57.52;98962.63;5035739;28;20029;-84
2023/08/02 11:03:46;;;;;;;0.08;0.08;;;;;;;23.40;55.55;98960.47;5035824;28;20484;-84
2023/08/02 11:06:24;;;;;;;1.67;1.55;;;;;;;23.39;54.64;98973.13;5036191;28;20101;-83
2023/08/02 11:08:50;;;;;;;0.10;0.10;;;;;;;23.36;53.73;98965.34;5033601;28;20021;-82
2023/08/02 11:11:31;;;;;;;0.32;0.32;;;;;;;23.48;54.22;98944.31;5035605;28;20045;-83
2023/08/02 11:13:57;;;;;;;0.00;0.00;;;;;;;23.48;54.12;98960.53;5029225;28;20009;-83
2023/08/02 11:16:23;;;;;;;0.10;0.10;;;;;;;23.41;53.31;98981.09;5035781;28;20029;-83
2023/08/02 11:18:52;;;;;;;0.10;0.10;;;;;;;23.42;53.22;98967.41;5031429;28;20041;-84
2023/08/02 11:21:18;;;;;;;0.10;0.10;;;;;;;23.49;53.62;98962.22;5031911;28;20117;-83
2023/08/02 11:23:49;;;;;;;0.10;0.10;;;;;;;23.61;53.62;98956.53;5034937;28;20026;-82
2023/08/02 11:26:17;;;;;;;0.10;0.10;;;;;;;23.67;52.81;98948.63;5035537;28;20029;-84
2023/08/02 11:28:48;;;;;;;0.10;0.10;;;;;;;23.50;51.39;98963.06;5027146;28;20025;-84
2023/08/02 11:31:14;;;;;;;0.52;0.52;;;;;;;23.78;51.60;98952.91;5035365;28;20029;-82
2023/08/02 11:33:43;;;;;;;0.22;0.22;;;;;;;23.80;50.35;98950.03;5025636;28;20033;-83
2023/08/02 11:36:09;;;;;;;0.10;0.10;;;;;;;23.64;50.45;98948.09;5032036;28;20037;-82
2023/08/02 11:38:41;;;;;;;0.20;0.20;;;;;;;23.68;51.18;98954.88;5032386;28;20037;-80
2023/08/02 11:43:53;;;;;;;0.00;0.00;;;;;;;23.94;50.35;98948.59;5089222;27;1200622;-82